Time;durP1;ratioP1;P1;durP2;ratioP2;P2;SDS_P1;SDS_P2;PMS_P1;PMS_P2;Temp;Humidity;BMP_temperature;BMP_pressure;BME280_temperature;BME280_humidity;BME280_pressure;Samples;Min_cycle;Max_cycle;Signal;HPM_P1;HPM_P2
2022/03/26 00:02:26;;;;;;;57.70;23.50;;;;;;;;;;4931298;28;20462;-65
2022/03/26 00:04:51;;;;;;;55.67;22.50;;;;;;;;;;4931682;28;20422;-66
2022/03/26 00:07:17;;;;;;;51.97;20.80;;;;;;;;;;4931774;28;20638;-64
2022/03/26 00:09:42;;;;;;;49.78;20.33;;;;;;;;;;4932651;28;20363;-64
2022/03/26 00:12:08;;;;;;;53.13;22.33;;;;;;;;;;4931623;28;20331;-64
2022/03/26 00:14:34;;;;;;;54.03;20.52;;;;;;;;;;4931224;28;20343;-64
2022/03/26 00:17:00;;;;;;;47.88;19.08;;;;;;;;;;4930987;28;20116;-64
2022/03/26 00:19:26;;;;;;;52.30;20.60;;;;;;;;;;4930661;28;20462;-65
2022/03/26 00:21:52;;;;;;;53.13;21.90;;;;;;;;;;4930469;28;20551;-64
2022/03/26 00:24:17;;;;;;;52.97;22.90;;;;;;;;;;4931240;28;20472;-65
2022/03/26 00:26:42;;;;;;;57.33;22.60;;;;;;;;;;4930991;28;20422;-64
2022/03/26 00:29:08;;;;;;;54.95;21.00;;;;;;;;;;4931237;28;20414;-64
2022/03/26 00:31:34;;;;;;;55.45;20.95;;;;;;;;;;4931079;28;20337;-64
2022/03/26 00:34:01;;;;;;;50.33;20.48;;;;;;;;;;4932244;28;20480;-65
2022/03/26 00:36:26;;;;;;;51.15;20.58;;;;;;;;;;4930265;28;20477;-64
2022/03/26 00:38:52;;;;;;;45.47;20.13;;;;;;;;;;4929068;28;20434;-65
2022/03/26 00:41:17;;;;;;;53.38;22.80;;;;;;;;;;4930341;28;20450;-64
2022/03/26 00:43:43;;;;;;;44.13;19.90;;;;;;;;;;4930781;28;20418;-64
2022/03/26 00:46:08;;;;;;;47.40;20.65;;;;;;;;;;4930611;28;20472;-64
2022/03/26 00:48:33;;;;;;;51.47;20.55;;;;;;;;;;4930761;28;20390;-64
2022/03/26 00:50:59;;;;;;;47.63;20.73;;;;;;;;;;4930512;28;20394;-64
2022/03/26 00:53:26;;;;;;;46.60;19.70;;;;;;;;;;4931624;28;20438;-64
2022/03/26 00:55:51;;;;;;;50.67;20.15;;;;;;;;;;4931132;28;20053;-64
2022/03/26 00:58:17;;;;;;;50.90;20.02;;;;;;;;;;4930819;28;20429;-64
2022/03/26 01:00:42;;;;;;;51.15;20.58;;;;;;;;;;4930656;28;20354;-64
2022/03/26 01:03:09;;;;;;;49.13;20.65;;;;;;;;;;4937870;28;20440;-64
2022/03/26 01:05:35;;;;;;;48.35;19.60;;;;;;;;;;4931167;28;20449;-65
2022/03/26 01:08:00;;;;;;;41.13;18.92;;;;;;;;;;4930418;28;20134;-65
2022/03/26 01:10:27;;;;;;;50.28;19.38;;;;;;;;;;4931066;28;20100;-64
2022/03/26 01:12:52;;;;;;;52.38;20.60;;;;;;;;;;4931371;28;20465;-64
2022/03/26 01:15:18;;;;;;;43.63;19.70;;;;;;;;;;4930965;28;20054;-64
2022/03/26 01:17:44;;;;;;;47.83;20.58;;;;;;;;;;4929967;28;20335;-64
2022/03/26 01:20:09;;;;;;;54.50;20.75;;;;;;;;;;4930558;28;20381;-65
2022/03/26 01:22:35;;;;;;;45.15;20.67;;;;;;;;;;4930433;28;20446;-64
2022/03/26 01:25:00;;;;;;;49.22;20.90;;;;;;;;;;4930472;28;20345;-64
2022/03/26 01:27:25;;;;;;;44.97;19.75;;;;;;;;;;4930450;28;20053;-64
2022/03/26 01:29:51;;;;;;;45.75;20.35;;;;;;;;;;4930212;28;20334;-64
2022/03/26 01:32:16;;;;;;;44.65;20.38;;;;;;;;;;4930097;28;20426;-64
2022/03/26 01:34:41;;;;;;;44.40;19.15;;;;;;;;;;4930040;28;20433;-64
2022/03/26 01:37:07;;;;;;;51.53;19.73;;;;;;;;;;4930199;28;20366;-65
2022/03/26 01:39:32;;;;;;;49.67;19.05;;;;;;;;;;4930123;28;20120;-64
2022/03/26 01:42:06;;;;;;;48.13;18.77;;;;;;;;;;4931417;28;20442;-64
2022/03/26 01:44:31;;;;;;;49.47;19.77;;;;;;;;;;4930088;28;20322;-64
2022/03/26 01:46:57;;;;;;;42.75;18.30;;;;;;;;;;4929401;28;20353;-65
2022/03/26 01:49:22;;;;;;;47.95;19.95;;;;;;;;;;4929671;28;20421;-64
2022/03/26 01:51:48;;;;;;;47.38;19.42;;;;;;;;;;4931061;28;20401;-64
2022/03/26 01:54:14;;;;;;;44.05;18.88;;;;;;;;;;4929780;28;20429;-64
2022/03/26 01:56:40;;;;;;;48.03;19.70;;;;;;;;;;4930019;28;20465;-64
2022/03/26 01:59:07;;;;;;;42.13;19.83;;;;;;;;;;4930700;28;20468;-64
2022/03/26 02:01:33;;;;;;;47.90;20.42;;;;;;;;;;4933364;28;20030;-64
2022/03/26 02:04:02;;;;;;;47.83;18.35;;;;;;;;;;4934773;28;20137;-64
2022/03/26 02:06:34;;;;;;;43.67;18.73;;;;;;;;;;4933162;28;20337;-64
2022/03/26 02:09:10;;;;;;;43.97;19.02;;;;;;;;;;4933356;28;20455;-64
2022/03/26 02:11:38;;;;;;;43.42;18.90;;;;;;;;;;4933256;28;20315;-64
2022/03/26 02:14:04;;;;;;;48.45;19.52;;;;;;;;;;4933333;28;20366;-64
2022/03/26 02:16:31;;;;;;;46.60;19.52;;;;;;;;;;4932923;28;20454;-64
2022/03/26 02:18:57;;;;;;;42.75;19.08;;;;;;;;;;4933326;28;20353;-65
2022/03/26 02:21:23;;;;;;;40.53;17.95;;;;;;;;;;4934554;28;20453;-64
2022/03/26 02:23:49;;;;;;;43.55;18.88;;;;;;;;;;4933681;28;20335;-64
2022/03/26 02:26:16;;;;;;;47.83;19.13;;;;;;;;;;4932864;28;20504;-64
2022/03/26 02:28:45;;;;;;;40.78;19.00;;;;;;;;;;4933500;28;20444;-64
2022/03/26 02:31:12;;;;;;;46.03;18.92;;;;;;;;;;4933920;28;20390;-64
2022/03/26 02:33:37;;;;;;;47.28;19.23;;;;;;;;;;4932567;28;20426;-64
2022/03/26 02:36:03;;;;;;;38.35;17.90;;;;;;;;;;4932811;28;20460;-63
2022/03/26 02:38:29;;;;;;;47.60;20.08;;;;;;;;;;4932852;28;20354;-65
2022/03/26 02:40:54;;;;;;;41.00;17.95;;;;;;;;;;4932466;28;20351;-66
2022/03/26 02:43:19;;;;;;;45.55;19.42;;;;;;;;;;4932729;28;20342;-64
2022/03/26 02:45:45;;;;;;;49.85;19.17;;;;;;;;;;4933451;28;20432;-65
2022/03/26 02:48:12;;;;;;;42.65;17.58;;;;;;;;;;4932634;28;20333;-66
2022/03/26 02:50:39;;;;;;;52.95;19.60;;;;;;;;;;4932726;28;20535;-64
2022/03/26 02:53:05;;;;;;;46.67;20.08;;;;;;;;;;4932946;28;20441;-64
2022/03/26 02:55:30;;;;;;;41.00;18.05;;;;;;;;;;4932422;28;20602;-64
2022/03/26 02:57:57;;;;;;;52.00;20.20;;;;;;;;;;4932744;28;20532;-64
2022/03/26 03:00:22;;;;;;;46.13;20.15;;;;;;;;;;4932795;28;20489;-64
2022/03/26 03:02:48;;;;;;;40.88;18.40;;;;;;;;;;4934166;28;20419;-64
2022/03/26 03:05:13;;;;;;;46.03;19.23;;;;;;;;;;4933907;28;20382;-65
2022/03/26 03:07:39;;;;;;;46.05;19.40;;;;;;;;;;4932220;28;20358;-64
2022/03/26 03:10:05;;;;;;;44.50;20.30;;;;;;;;;;4931679;28;20073;-64
2022/03/26 03:12:31;;;;;;;46.35;20.25;;;;;;;;;;4932541;28;20498;-65
2022/03/26 03:14:56;;;;;;;48.40;19.25;;;;;;;;;;4931903;28;20450;-64
2022/03/26 03:17:21;;;;;;;47.20;19.25;;;;;;;;;;4933897;28;20418;-64
2022/03/26 03:19:47;;;;;;;47.60;18.00;;;;;;;;;;4931906;28;20022;-65
2022/03/26 03:22:12;;;;;;;41.40;18.80;;;;;;;;;;4931969;28;20458;-64
2022/03/26 03:24:38;;;;;;;43.83;17.95;;;;;;;;;;4931955;28;20437;-64
2022/03/26 03:27:04;;;;;;;50.25;20.45;;;;;;;;;;4932313;28;20418;-64
2022/03/26 03:29:30;;;;;;;42.58;18.90;;;;;;;;;;4931816;28;20473;-64
2022/03/26 03:31:56;;;;;;;43.75;19.40;;;;;;;;;;4933523;28;20056;-65
2022/03/26 03:34:22;;;;;;;38.97;18.65;;;;;;;;;;4932088;28;20304;-64
2022/03/26 03:36:47;;;;;;;55.03;19.55;;;;;;;;;;4931951;28;20341;-64
2022/03/26 03:39:12;;;;;;;46.85;19.75;;;;;;;;;;4931386;28;20334;-64
2022/03/26 03:41:38;;;;;;;48.45;20.00;;;;;;;;;;4931632;28;20034;-65
2022/03/26 03:44:04;;;;;;;50.20;19.95;;;;;;;;;;4931420;28;20418;-64
2022/03/26 03:46:30;;;;;;;43.42;18.58;;;;;;;;;;4932336;28;20458;-63
2022/03/26 03:48:56;;;;;;;49.67;20.10;;;;;;;;;;4931731;28;20430;-64
2022/03/26 03:51:22;;;;;;;44.88;19.27;;;;;;;;;;4931575;28;20513;-63
2022/03/26 03:53:47;;;;;;;44.92;19.38;;;;;;;;;;4931610;28;20390;-65
2022/03/26 03:56:13;;;;;;;48.67;19.67;;;;;;;;;;4931719;28;20433;-66
2022/03/26 03:58:38;;;;;;;48.38;19.60;;;;;;;;;;4931162;28;20338;-65
2022/03/26 04:01:03;;;;;;;43.78;19.58;;;;;;;;;;4930985;28;20484;-64
2022/03/26 04:03:29;;;;;;;46.33;20.15;;;;;;;;;;4931381;28;20418;-64
2022/03/26 04:05:54;;;;;;;47.75;19.42;;;;;;;;;;4932129;28;20449;-64
2022/03/26 04:08:21;;;;;;;47.78;19.33;;;;;;;;;;4931453;28;20401;-64
2022/03/26 04:10:46;;;;;;;47.13;19.60;;;;;;;;;;4930888;28;20031;-64
2022/03/26 04:13:11;;;;;;;53.22;21.00;;;;;;;;;;4931970;28;20045;-64
2022/03/26 04:15:37;;;;;;;45.05;19.92;;;;;;;;;;4930864;28;20057;-64
2022/03/26 04:18:02;;;;;;;48.92;19.83;;;;;;;;;;4930980;28;20322;-64
2022/03/26 04:20:28;;;;;;;51.72;19.90;;;;;;;;;;4930929;28;20034;-63
2022/03/26 04:22:53;;;;;;;51.55;19.85;;;;;;;;;;4930324;28;20437;-64
2022/03/26 04:25:19;;;;;;;50.35;21.05;;;;;;;;;;4931817;28;20338;-64
2022/03/26 04:27:44;;;;;;;42.00;20.60;;;;;;;;;;4930968;28;20504;-64
2022/03/26 04:30:11;;;;;;;51.15;20.17;;;;;;;;;;4931512;28;20409;-65
2022/03/26 04:32:36;;;;;;;50.50;19.83;;;;;;;;;;4930815;28;20481;-64
2022/03/26 04:35:02;;;;;;;48.70;20.02;;;;;;;;;;4930444;28;20486;-64
2022/03/26 04:37:28;;;;;;;50.75;20.75;;;;;;;;;;4930851;28;20430;-64
2022/03/26 04:39:53;;;;;;;53.00;20.40;;;;;;;;;;4930588;28;20468;-64
2022/03/26 04:42:19;;;;;;;45.65;18.67;;;;;;;;;;4931053;28;20374;-64
2022/03/26 04:44:45;;;;;;;45.95;20.33;;;;;;;;;;4931212;28;20334;-64
2022/03/26 04:47:10;;;;;;;47.50;20.67;;;;;;;;;;4931207;28;20069;-64
2022/03/26 04:49:36;;;;;;;52.08;21.30;;;;;;;;;;4930467;28;20374;-63
2022/03/26 04:52:01;;;;;;;48.05;20.60;;;;;;;;;;4930335;28;20441;-64
2022/03/26 04:54:27;;;;;;;50.65;19.40;;;;;;;;;;4932048;28;20429;-64
2022/03/26 04:56:52;;;;;;;44.85;19.88;;;;;;;;;;4930373;28;20441;-64
2022/03/26 04:59:17;;;;;;;47.65;21.40;;;;;;;;;;4930469;28;20461;-63
2022/03/26 05:01:44;;;;;;;46.25;21.10;;;;;;;;;;4930394;28;20349;-64
2022/03/26 05:04:11;;;;;;;48.53;20.02;;;;;;;;;;4930618;28;20065;-64
2022/03/26 05:06:36;;;;;;;47.00;19.67;;;;;;;;;;4930143;28;20453;-64
2022/03/26 05:09:02;;;;;;;44.28;19.85;;;;;;;;;;4931400;28;20407;-64
2022/03/26 05:11:28;;;;;;;45.42;18.48;;;;;;;;;;4930528;28;20022;-64
2022/03/26 05:13:53;;;;;;;52.63;21.35;;;;;;;;;;4929916;28;20504;-64
2022/03/26 05:16:18;;;;;;;52.40;20.92;;;;;;;;;;4930477;28;20425;-64
2022/03/26 05:18:44;;;;;;;53.28;22.10;;;;;;;;;;4929660;28;20495;-64
2022/03/26 05:21:09;;;;;;;47.17;18.48;;;;;;;;;;4930057;28;20373;-65
2022/03/26 05:23:35;;;;;;;54.38;21.98;;;;;;;;;;4929927;28;20322;-65
2022/03/26 05:26:01;;;;;;;47.35;20.48;;;;;;;;;;4930078;28;20027;-64
2022/03/26 05:28:26;;;;;;;49.03;21.08;;;;;;;;;;4929898;28;20500;-64
2022/03/26 05:30:51;;;;;;;51.30;21.00;;;;;;;;;;4930247;28;20350;-64
2022/03/26 05:33:17;;;;;;;52.53;21.30;;;;;;;;;;4930783;28;20322;-64
2022/03/26 05:35:42;;;;;;;49.83;19.88;;;;;;;;;;4934001;28;20345;-64
2022/03/26 05:38:08;;;;;;;50.60;20.50;;;;;;;;;;4932893;28;20524;-64
2022/03/26 05:40:34;;;;;;;53.10;22.30;;;;;;;;;;4933099;28;20069;-63
2022/03/26 05:42:59;;;;;;;50.40;21.55;;;;;;;;;;4933707;28;20315;-64
2022/03/26 05:45:25;;;;;;;43.58;19.67;;;;;;;;;;4933539;28;20365;-65
2022/03/26 05:47:51;;;;;;;46.78;20.52;;;;;;;;;;4934550;28;20316;-64
2022/03/26 05:50:16;;;;;;;48.28;20.00;;;;;;;;;;4931787;28;20441;-64
2022/03/26 05:52:42;;;;;;;50.20;21.90;;;;;;;;;;4934715;28;20410;-64
2022/03/26 05:55:08;;;;;;;45.85;20.23;;;;;;;;;;4933247;28;20049;-64
2022/03/26 05:57:33;;;;;;;48.92;20.95;;;;;;;;;;4933289;28;20429;-64
2022/03/26 05:59:58;;;;;;;46.15;20.38;;;;;;;;;;4933261;28;20346;-65
2022/03/26 06:02:24;;;;;;;50.65;21.70;;;;;;;;;;4933426;28;20449;-65
2022/03/26 06:04:49;;;;;;;47.92;20.23;;;;;;;;;;4933332;28;20061;-64
2022/03/26 06:07:15;;;;;;;47.50;21.10;;;;;;;;;;4933953;28;20381;-64
2022/03/26 06:09:40;;;;;;;51.08;20.23;;;;;;;;;;4934103;28;20354;-64
2022/03/26 06:12:07;;;;;;;44.90;21.38;;;;;;;;;;4933212;28;20528;-64
2022/03/26 06:14:33;;;;;;;42.10;20.30;;;;;;;;;;4931475;28;20477;-65
2022/03/26 06:16:58;;;;;;;46.92;22.15;;;;;;;;;;4932925;28;20433;-64
2022/03/26 06:19:25;;;;;;;49.92;21.15;;;;;;;;;;4932919;28;20517;-64
2022/03/26 06:21:50;;;;;;;47.80;22.35;;;;;;;;;;4933131;28;20478;-64
2022/03/26 06:24:16;;;;;;;48.63;21.10;;;;;;;;;;4932977;28;20516;-64
2022/03/26 06:26:43;;;;;;;49.92;21.48;;;;;;;;;;4933586;28;20395;-64
2022/03/26 06:29:09;;;;;;;58.67;22.65;;;;;;;;;;4933405;28;20473;-64
2022/03/26 06:31:34;;;;;;;47.15;21.05;;;;;;;;;;4932947;28;20624;-65
2022/03/26 06:34:00;;;;;;;54.08;23.30;;;;;;;;;;4933783;28;20307;-65
2022/03/26 06:36:26;;;;;;;56.33;22.42;;;;;;;;;;4933096;28;20457;-65
2022/03/26 06:38:51;;;;;;;45.72;22.63;;;;;;;;;;4932783;28;20373;-65
2022/03/26 06:41:17;;;;;;;48.53;21.65;;;;;;;;;;4932608;28;20484;-64
2022/03/26 06:43:43;;;;;;;51.00;22.27;;;;;;;;;;4932287;28;20071;-64
2022/03/26 06:46:08;;;;;;;54.60;23.05;;;;;;;;;;4933134;28;20329;-64
2022/03/26 06:48:34;;;;;;;53.67;21.77;;;;;;;;;;4932732;28;20349;-64
2022/03/26 06:51:01;;;;;;;50.42;22.33;;;;;;;;;;4932189;28;20373;-65
2022/03/26 06:53:30;;;;;;;47.80;22.35;;;;;;;;;;4932504;28;20406;-65
2022/03/26 06:55:55;;;;;;;49.45;23.08;;;;;;;;;;4932320;28;20354;-65
2022/03/26 06:58:21;;;;;;;52.28;22.95;;;;;;;;;;4933820;28;20052;-65
2022/03/26 07:00:47;;;;;;;54.90;22.33;;;;;;;;;;4932672;28;20345;-65
2022/03/26 07:03:12;;;;;;;49.45;22.73;;;;;;;;;;4933382;28;20444;-65
2022/03/26 07:05:37;;;;;;;52.30;21.77;;;;;;;;;;4932758;28;20464;-64
2022/03/26 07:08:04;;;;;;;54.13;22.95;;;;;;;;;;4933242;28;20397;-65
2022/03/26 07:10:29;;;;;;;52.78;23.80;;;;;;;;;;4933275;28;20121;-65
2022/03/26 07:12:54;;;;;;;55.00;23.85;;;;;;;;;;4932389;28;20456;-66
2022/03/26 07:15:20;;;;;;;51.35;23.50;;;;;;;;;;4931667;28;20118;-65
2022/03/26 07:17:45;;;;;;;54.83;23.42;;;;;;;;;;4931979;28;20418;-65
2022/03/26 07:20:11;;;;;;;56.42;22.05;;;;;;;;;;4932310;28;20334;-65
2022/03/26 07:22:37;;;;;;;52.35;22.88;;;;;;;;;;4931692;28;20580;-65
2022/03/26 07:25:04;;;;;;;47.50;21.15;;;;;;;;;;4931826;28;20126;-65
2022/03/26 07:27:33;;;;;;;51.25;22.95;;;;;;;;;;4931888;28;20341;-64
2022/03/26 07:29:59;;;;;;;48.55;20.40;;;;;;;;;;4932438;28;20034;-65
2022/03/26 07:32:25;;;;;;;54.90;22.15;;;;;;;;;;4932820;28;20126;-65
2022/03/26 07:34:51;;;;;;;48.22;21.80;;;;;;;;;;4931818;28;20450;-65
2022/03/26 07:37:16;;;;;;;49.08;21.10;;;;;;;;;;4932037;28;20477;-65
2022/03/26 07:39:42;;;;;;;50.90;21.00;;;;;;;;;;4931779;28;20418;-65
2022/03/26 07:42:07;;;;;;;47.60;22.17;;;;;;;;;;4931576;28;20362;-65
2022/03/26 07:44:33;;;;;;;53.92;22.08;;;;;;;;;;4931935;28;20448;-65
2022/03/26 07:46:58;;;;;;;47.13;19.77;;;;;;;;;;4931921;28;20441;-65
2022/03/26 07:49:24;;;;;;;47.08;20.25;;;;;;;;;;4931497;28;20369;-65
2022/03/26 07:51:50;;;;;;;46.78;20.35;;;;;;;;;;4931361;28;20437;-65
2022/03/26 07:54:15;;;;;;;42.55;19.55;;;;;;;;;;4931200;28;20462;-65
2022/03/26 07:56:40;;;;;;;39.47;19.55;;;;;;;;;;4930386;28;20455;-65
2022/03/26 07:59:06;;;;;;;50.33;21.30;;;;;;;;;;4932030;28;20520;-66
2022/03/26 08:01:31;;;;;;;45.22;19.98;;;;;;;;;;4931870;28;20393;-65
2022/03/26 08:03:57;;;;;;;37.42;19.65;;;;;;;;;;4931015;28;20377;-65
2022/03/26 08:06:23;;;;;;;45.60;20.85;;;;;;;;;;4931634;28;20520;-66
2022/03/26 08:08:48;;;;;;;46.58;20.40;;;;;;;;;;4930909;28;20353;-65
2022/03/26 08:11:13;;;;;;;45.30;19.60;;;;;;;;;;4930665;28;20054;-66
2022/03/26 08:13:39;;;;;;;43.85;19.52;;;;;;;;;;4931865;28;20496;-65
2022/03/26 08:16:05;;;;;;;53.00;21.23;;;;;;;;;;4930928;28;20422;-65
2022/03/26 08:18:30;;;;;;;47.25;19.58;;;;;;;;;;4931767;28;20503;-65
2022/03/26 08:20:56;;;;;;;46.75;19.95;;;;;;;;;;4930666;28;20426;-65
2022/03/26 08:23:21;;;;;;;40.75;17.95;;;;;;;;;;4931119;28;20491;-66
2022/03/26 08:28:31;;;;;;;46.15;19.33;;;;;;;;;;4933145;28;20531;-65
2022/03/26 08:30:56;;;;;;;45.58;19.05;;;;;;;;;;4930554;28;20528;-66
2022/03/26 08:33:21;;;;;;;43.08;18.20;;;;;;;;;;4930313;28;20030;-64
2022/03/26 08:35:47;;;;;;;40.45;18.50;;;;;;;;;;4931654;28;20346;-65
2022/03/26 08:38:12;;;;;;;37.50;18.45;;;;;;;;;;4930626;28;20414;-67
2022/03/26 08:40:38;;;;;;;37.65;17.52;;;;;;;;;;4930020;28;20046;-65
2022/03/26 08:43:04;;;;;;;46.25;19.70;;;;;;;;;;4931563;28;20333;-65
2022/03/26 08:45:30;;;;;;;42.35;16.42;;;;;;;;;;4931217;28;20023;-65
2022/03/26 08:47:55;;;;;;;39.63;17.05;;;;;;;;;;4930662;28;20445;-65
2022/03/26 08:50:21;;;;;;;43.85;16.92;;;;;;;;;;4930629;28;20354;-65
2022/03/26 08:52:47;;;;;;;39.70;16.45;;;;;;;;;;4930613;28;20413;-65
2022/03/26 08:55:16;;;;;;;37.33;17.15;;;;;;;;;;4931392;28;20425;-65
2022/03/26 08:57:42;;;;;;;37.38;16.27;;;;;;;;;;4930498;28;20509;-66
2022/03/26 09:00:09;;;;;;;38.97;16.05;;;;;;;;;;4930534;28;20456;-65
2022/03/26 09:02:34;;;;;;;37.88;16.38;;;;;;;;;;4929947;28;20454;-65
2022/03/26 09:05:00;;;;;;;30.08;15.18;;;;;;;;;;4931406;28;20662;-65
2022/03/26 09:07:25;;;;;;;32.42;15.68;;;;;;;;;;4931133;28;20057;-65
2022/03/26 09:09:50;;;;;;;32.72;15.10;;;;;;;;;;4933550;28;20488;-66
2022/03/26 09:12:16;;;;;;;31.15;14.73;;;;;;;;;;4934031;28;20405;-65
2022/03/26 09:14:41;;;;;;;28.35;14.70;;;;;;;;;;4934245;28;20049;-65
2022/03/26 09:17:06;;;;;;;32.50;13.85;;;;;;;;;;4934371;28;20031;-65
2022/03/26 09:19:32;;;;;;;31.40;14.13;;;;;;;;;;4935010;28;20653;-66
2022/03/26 09:21:58;;;;;;;34.28;14.30;;;;;;;;;;4934635;28;20089;-66
2022/03/26 09:24:23;;;;;;;30.10;14.05;;;;;;;;;;4933925;28;20046;-67
2022/03/26 09:26:49;;;;;;;32.28;13.80;;;;;;;;;;4934229;28;20446;-65
2022/03/26 09:29:15;;;;;;;28.83;12.70;;;;;;;;;;4933882;28;20349;-66
2022/03/26 09:31:41;;;;;;;32.17;12.40;;;;;;;;;;4933878;28;20396;-65
2022/03/26 09:34:06;;;;;;;29.95;13.60;;;;;;;;;;4933899;28;20378;-66
2022/03/26 09:36:31;;;;;;;29.65;12.27;;;;;;;;;;4933935;28;20369;-65
2022/03/26 09:38:57;;;;;;;29.23;13.40;;;;;;;;;;4934515;28;20434;-66
2022/03/26 09:41:22;;;;;;;25.75;11.77;;;;;;;;;;4933712;28;20376;-65
2022/03/26 09:43:48;;;;;;;30.65;13.45;;;;;;;;;;4933382;28;20434;-65
2022/03/26 09:46:14;;;;;;;30.38;12.65;;;;;;;;;;4933667;28;20030;-65
2022/03/26 09:48:40;;;;;;;22.98;10.85;;;;;;;;;;4933330;28;20045;-65
2022/03/26 09:51:08;;;;;;;25.75;11.27;;;;;;;;;;4933543;28;20049;-66
2022/03/26 09:53:34;;;;;;;27.48;11.98;;;;;;;;;;4934464;28;20030;-66
2022/03/26 09:56:00;;;;;;;22.30;11.82;;;;;;;;;;4933419;28;20473;-65
2022/03/26 09:58:25;;;;;;;24.60;11.45;;;;;;;;;;4934734;28;20317;-65
2022/03/26 10:00:53;;;;;;;24.27;11.23;;;;;;;;;;4933104;28;20423;-65
2022/03/26 10:03:19;;;;;;;29.85;11.35;;;;;;;;;;4934407;28;20384;-65
2022/03/26 10:05:46;;;;;;;22.50;10.70;;;;;;;;;;4933312;28;20447;-65
2022/03/26 10:08:34;;;;;;;25.60;11.27;;;;;;;;;;4933469;28;20373;-66
2022/03/26 10:10:59;;;;;;;24.60;10.88;;;;;;;;;;4934863;28;20453;-65
2022/03/26 10:13:43;;;;;;;25.17;11.82;;;;;;;;;;4933105;28;20508;-65
2022/03/26 10:16:12;;;;;;;22.67;10.30;;;;;;;;;;4933358;28;20022;-65
2022/03/26 10:18:40;;;;;;;27.83;10.88;;;;;;;;;;4933075;28;20345;-65
2022/03/26 10:21:07;;;;;;;26.70;10.77;;;;;;;;;;4932993;28;20517;-67
2022/03/26 10:23:33;;;;;;;27.17;11.52;;;;;;;;;;4932741;28;20428;-65
2022/03/26 10:26:10;;;;;;;22.40;10.55;;;;;;;;;;4933092;28;20424;-65
2022/03/26 10:28:36;;;;;;;24.00;10.43;;;;;;;;;;4933008;28;20606;-65
2022/03/26 10:34:08;;;;;;;21.63;10.30;;;;;;;;;;4934286;28;20428;-65
2022/03/26 10:36:36;;;;;;;22.95;9.10;;;;;;;;;;4932255;28;20405;-65
2022/03/26 10:39:02;;;;;;;19.33;9.00;;;;;;;;;;4932869;28;20450;-65
2022/03/26 10:41:31;;;;;;;18.52;9.85;;;;;;;;;;4932100;28;20532;-65
2022/03/26 10:44:08;;;;;;;17.58;8.35;;;;;;;;;;4932996;28;20026;-66
2022/03/26 10:46:54;;;;;;;21.92;9.75;;;;;;;;;;4932870;28;20409;-66
2022/03/26 10:49:31;;;;;;;17.42;8.15;;;;;;;;;;4930853;28;20465;-65
2022/03/26 10:52:03;;;;;;;21.75;9.65;;;;;;;;;;4932191;28;20477;-65
2022/03/26 10:54:31;;;;;;;22.55;7.50;;;;;;;;;;4934129;28;20365;-65
2022/03/26 10:57:00;;;;;;;18.60;9.15;;;;;;;;;;4932331;28;20568;-65
2022/03/26 10:59:26;;;;;;;17.55;8.27;;;;;;;;;;4932035;28;20386;-65
2022/03/26 11:01:51;;;;;;;19.35;8.57;;;;;;;;;;4933726;28;20532;-65
2022/03/26 11:04:18;;;;;;;19.15;8.27;;;;;;;;;;4932043;28;20373;-65
2022/03/26 11:06:44;;;;;;;17.85;8.68;;;;;;;;;;4933114;28;20378;-65
2022/03/26 11:09:09;;;;;;;19.27;8.23;;;;;;;;;;4930917;28;20346;-65
2022/03/26 11:11:35;;;;;;;19.02;7.90;;;;;;;;;;4932064;28;20396;-65
2022/03/26 11:14:10;;;;;;;18.88;8.73;;;;;;;;;;4930755;28;20483;-66
2022/03/26 11:16:52;;;;;;;22.33;9.00;;;;;;;;;;4930699;28;20418;-66
2022/03/26 11:19:27;;;;;;;19.83;7.68;;;;;;;;;;4932140;28;20493;-65
2022/03/26 11:21:56;;;;;;;16.13;8.38;;;;;;;;;;4931296;28;20358;-65
2022/03/26 11:25:02;;;;;;;14.67;7.40;;;;;;;;;;4932277;28;20335;-65
2022/03/26 11:27:54;;;;;;;16.70;7.47;;;;;;;;;;4931758;28;20038;-65
2022/03/26 11:30:24;;;;;;;15.45;6.93;;;;;;;;;;4931708;28;20034;-65
2022/03/26 11:32:52;;;;;;;15.15;7.35;;;;;;;;;;4931315;28;20438;-65
2022/03/26 11:35:18;;;;;;;18.55;8.45;;;;;;;;;;4932683;28;20454;-66
2022/03/26 11:37:50;;;;;;;14.27;6.65;;;;;;;;;;4932144;28;20338;-65
2022/03/26 11:40:43;;;;;;;17.73;6.70;;;;;;;;;;4931379;28;20168;-65
2022/03/26 11:43:09;;;;;;;14.85;6.45;;;;;;;;;;4931797;28;20397;-66
2022/03/26 11:51:24;;;;;;;11.80;6.38;;;;;;;;;;4931946;28;20357;-67
2022/03/26 11:54:13;;;;;;;18.90;7.25;;;;;;;;;;4931317;28;20603;-65
2022/03/26 11:56:39;;;;;;;19.02;7.93;;;;;;;;;;4927469;28;20449;-65
2022/03/26 11:59:17;;;;;;;11.13;5.68;;;;;;;;;;4930798;28;20441;-65
2022/03/26 12:01:43;;;;;;;17.98;6.93;;;;;;;;;;4931052;28;20038;-65
2022/03/26 12:04:16;;;;;;;15.82;6.55;;;;;;;;;;4931611;28;20362;-65
2022/03/26 12:06:49;;;;;;;9.80;5.10;;;;;;;;;;4932013;28;20030;-65
2022/03/26 12:09:37;;;;;;;14.07;6.10;;;;;;;;;;4930995;28;20338;-65
2022/03/26 12:12:10;;;;;;;15.57;6.95;;;;;;;;;;4931233;28;20344;-65
2022/03/26 12:14:56;;;;;;;11.45;5.60;;;;;;;;;;4931045;28;20422;-65
2022/03/26 12:17:50;;;;;;;13.05;5.80;;;;;;;;;;4930505;28;20049;-66
2022/03/26 12:20:26;;;;;;;12.20;5.55;;;;;;;;;;4931003;28;20033;-65
2022/03/26 12:23:12;;;;;;;12.98;6.40;;;;;;;;;;4930570;28;20445;-66
2022/03/26 12:25:48;;;;;;;13.50;5.97;;;;;;;;;;4930776;28;20068;-65
2022/03/26 12:28:16;;;;;;;12.10;5.63;;;;;;;;;;4931462;28;20353;-66
2022/03/26 12:30:49;;;;;;;10.32;5.22;;;;;;;;;;4930483;28;20440;-65
2022/03/26 12:33:15;;;;;;;11.15;5.60;;;;;;;;;;4931523;28;20442;-65
2022/03/26 12:35:43;;;;;;;10.88;5.05;;;;;;;;;;4930671;28;20605;-65
2022/03/26 12:38:09;;;;;;;10.63;5.40;;;;;;;;;;4932461;28;20443;-65
2022/03/26 12:40:34;;;;;;;14.70;5.28;;;;;;;;;;4930537;28;20548;-65
2022/03/26 12:43:00;;;;;;;9.27;5.45;;;;;;;;;;4930055;28;20414;-65
2022/03/26 12:45:25;;;;;;;9.63;4.97;;;;;;;;;;4930497;28;20373;-66
2022/03/26 12:47:50;;;;;;;13.65;5.72;;;;;;;;;;4945027;28;20053;-65
2022/03/26 12:50:23;;;;;;;11.63;5.40;;;;;;;;;;4930607;28;20577;-65
2022/03/26 12:52:49;;;;;;;10.25;5.20;;;;;;;;;;4930274;28;20058;-65
2022/03/26 12:55:16;;;;;;;13.50;5.45;;;;;;;;;;4930658;28;20450;-65
2022/03/26 13:00:27;;;;;;;9.00;4.97;;;;;;;;;;4931841;28;20457;-65
2022/03/26 13:03:10;;;;;;;10.07;4.82;;;;;;;;;;4930581;28;20421;-66
2022/03/26 13:05:37;;;;;;;9.77;4.28;;;;;;;;;;4931224;28;20430;-65
2022/03/26 13:08:04;;;;;;;11.55;5.05;;;;;;;;;;4930247;28;20426;-65
2022/03/26 13:10:35;;;;;;;10.02;5.20;;;;;;;;;;4930765;28;20371;-65
2022/03/26 13:13:01;;;;;;;10.02;4.63;;;;;;;;;;4930126;28;20445;-65
2022/03/26 13:15:26;;;;;;;7.00;4.22;;;;;;;;;;4930712;28;20597;-65
2022/03/26 13:17:56;;;;;;;10.05;4.60;;;;;;;;;;4930879;28;20053;-65
2022/03/26 13:20:25;;;;;;;;;;;;;;;;;;4930759;28;20387;-65
2022/03/26 13:22:57;;;;;;;7.70;4.55;;;;;;;;;;4929872;28;19956;-65
2022/03/26 13:25:22;;;;;;;9.02;4.35;;;;;;;;;;4930855;28;20449;-66
2022/03/26 13:27:47;;;;;;;7.00;4.13;;;;;;;;;;4929992;28;20449;-65
2022/03/26 13:30:14;;;;;;;8.57;4.65;;;;;;;;;;4930205;28;20501;-65
2022/03/26 13:32:43;;;;;;;8.73;4.75;;;;;;;;;;4929765;28;20453;-65
2022/03/26 13:35:08;;;;;;;6.72;3.97;;;;;;;;;;4930429;28;20418;-66
2022/03/26 13:37:34;;;;;;;8.10;4.32;;;;;;;;;;4929989;28;20448;-65
2022/03/26 13:40:03;;;;;;;8.32;4.00;;;;;;;;;;4930333;28;20441;-65
2022/03/26 13:42:28;;;;;;;;;;;;;;;;;;4930416;28;20042;-65
2022/03/26 13:44:56;;;;;;;8.07;3.90;;;;;;;;;;4929818;28;20302;-65
2022/03/26 13:47:23;;;;;;;8.32;3.90;;;;;;;;;;4931102;28;20503;-66
2022/03/26 13:50:09;;;;;;;8.90;3.67;;;;;;;;;;4929805;28;20030;-65
2022/03/26 13:52:42;;;;;;;9.43;3.50;;;;;;;;;;4929531;28;20346;-65
2022/03/26 13:55:28;;;;;;;6.78;3.80;;;;;;;;;;4932371;28;20112;-65
2022/03/26 13:57:56;;;;;;;14.15;3.88;;;;;;;;;;4933220;28;20492;-65
2022/03/26 14:00:22;;;;;;;8.90;3.90;;;;;;;;;;4934564;28;20485;-65
2022/03/26 14:02:49;;;;;;;6.22;3.60;;;;;;;;;;4933126;28;20350;-65
2022/03/26 14:05:18;;;;;;;10.43;4.45;;;;;;;;;;4933446;28;20332;-65
2022/03/26 14:07:45;;;;;;;5.65;3.63;;;;;;;;;;4933338;28;20323;-65
2022/03/26 14:10:11;;;;;;;8.13;3.95;;;;;;;;;;4933433;28;20594;-66
2022/03/26 14:12:37;;;;;;;10.02;4.25;;;;;;;;;;4933009;28;20460;-65
2022/03/26 14:15:02;;;;;;;6.75;3.70;;;;;;;;;;4933082;28;20450;-65
2022/03/26 14:17:27;;;;;;;8.85;3.85;;;;;;;;;;4933311;28;20401;-65
2022/03/26 14:19:53;;;;;;;7.45;3.70;;;;;;;;;;4933255;28;20096;-65
2022/03/26 14:22:18;;;;;;;10.27;4.20;;;;;;;;;;4934779;28;20121;-65
2022/03/26 14:24:43;;;;;;;7.07;3.38;;;;;;;;;;4934456;28;20030;-66
2022/03/26 14:27:09;;;;;;;6.00;3.28;;;;;;;;;;4932977;28;20445;-65
2022/03/26 14:29:34;;;;;;;7.65;3.55;;;;;;;;;;4934314;28;20409;-65
2022/03/26 14:31:59;;;;;;;8.32;4.05;;;;;;;;;;4932741;28;20391;-65
2022/03/26 14:34:25;;;;;;;5.53;3.35;;;;;;;;;;4934094;28;20398;-65
2022/03/26 14:36:52;;;;;;;4.60;2.88;;;;;;;;;;4932559;28;20516;-65